Fisherdale, Pennsylvania
Current Conditions -  °F | °C
As of 8:53 AM on Wednesday 26 Nov 2014 (Local Time) from KSEG Reporting Station
Light Snow Light Snow  
Wind Chill: 33°   Ceiling: 600
Heat Index: 33°   Visibility: 0.75mi
Dew Point: 32°   Wind: 3mph
Humidity: 96%   Direction: 20°NNE
Pressure: 30.11"   Gusts: NA
Location:  40.8606°N, 76.551°W
Report Text: KSEG 261353Z AUTO 02003KT 3/4SM -SN BR OVC006 01/00 A3011 RMK AO2 PRESFR SLP202 P0007 T00060000
Loading
Personal Weather Stations






























Interactive Weather Map New forecast layout! Learn more

10-Day Weather Forecast

Advertisements
Track Severe Weather on mobile